sensor_id;sensor_type;location;lat;lon;timestamp;pressure;altitude;pressure_sealevel;temperature;humidity
22440;BME280;11387;51.612;7.210;2023-07-16T00:01:56;100069.97;;;18.99;81.04
22440;BME280;11387;51.612;7.210;2023-07-16T00:04:25;100075.06;;;18.97;81.25
22440;BME280;11387;51.612;7.210;2023-07-16T00:06:54;100057.84;;;18.84;82.11
22440;BME280;11387;51.612;7.210;2023-07-16T00:09:22;100082.19;;;18.95;81.91
22440;BME280;11387;51.612;7.210;2023-07-16T00:11:53;100087.22;;;18.89;82.10
22440;BME280;11387;51.612;7.210;2023-07-16T00:14:22;100087.44;;;18.80;82.70
22440;BME280;11387;51.612;7.210;2023-07-16T00:16:51;100086.78;;;18.87;82.72
22440;BME280;11387;51.612;7.210;2023-07-16T00:19:21;100096.03;;;18.95;82.46
22440;BME280;11387;51.612;7.210;2023-07-16T00:21:50;100083.75;;;18.96;82.52
22440;BME280;11387;51.612;7.210;2023-07-16T00:24:19;100092.59;;;19.01;82.37
22440;BME280;11387;51.612;7.210;2023-07-16T00:26:48;100084.00;;;18.87;83.24
22440;BME280;11387;51.612;7.210;2023-07-16T00:29:24;100070.59;;;18.70;84.30
22440;BME280;11387;51.612;7.210;2023-07-16T00:31:53;100075.84;;;18.56;85.54
22440;BME280;11387;51.612;7.210;2023-07-16T00:34:22;100078.91;;;18.50;86.19
22440;BME280;11387;51.612;7.210;2023-07-16T00:36:52;100076.28;;;18.38;86.97
22440;BME280;11387;51.612;7.210;2023-07-16T00:39:23;100092.78;;;18.31;87.52
22440;BME280;11387;51.612;7.210;2023-07-16T00:41:53;100095.59;;;18.35;87.44
22440;BME280;11387;51.612;7.210;2023-07-16T00:44:22;100111.13;;;18.39;87.48
22440;BME280;11387;51.612;7.210;2023-07-16T00:46:53;100106.03;;;18.41;86.99
22440;BME280;11387;51.612;7.210;2023-07-16T00:49:23;100117.38;;;18.36;87.72
22440;BME280;11387;51.612;7.210;2023-07-16T00:51:53;100122.00;;;18.29;87.81
22440;BME280;11387;51.612;7.210;2023-07-16T00:54:25;100123.53;;;18.26;88.18
22440;BME280;11387;51.612;7.210;2023-07-16T00:56:54;100120.53;;;18.35;87.32
22440;BME280;11387;51.612;7.210;2023-07-16T00:59:23;100122.06;;;18.32;87.49
22440;BME280;11387;51.612;7.210;2023-07-16T01:01:54;100118.13;;;18.33;87.83
22440;BME280;11387;51.612;7.210;2023-07-16T01:04:23;100123.06;;;18.24;88.47
22440;BME280;11387;51.612;7.210;2023-07-16T01:06:54;100119.69;;;18.15;89.40
22440;BME280;11387;51.612;7.210;2023-07-16T01:09:24;100119.97;;;18.10;89.87
22440;BME280;11387;51.612;7.210;2023-07-16T01:11:54;100108.16;;;17.94;90.86
22440;BME280;11387;51.612;7.210;2023-07-16T01:14:25;100102.00;;;17.84;92.14
22440;BME280;11387;51.612;7.210;2023-07-16T01:16:55;100104.44;;;17.70;92.74
22440;BME280;11387;51.612;7.210;2023-07-16T01:19:29;100113.81;;;17.66;93.83
22440;BME280;11387;51.612;7.210;2023-07-16T01:22:08;100112.81;;;17.58;94.79
22440;BME280;11387;51.612;7.210;2023-07-16T01:25:02;100124.41;;;17.64;94.67
22440;BME280;11387;51.612;7.210;2023-07-16T01:27:50;100115.13;;;17.56;95.79
22440;BME280;11387;51.612;7.210;2023-07-16T01:30:28;100123.34;;;17.52;96.35
22440;BME280;11387;51.612;7.210;2023-07-16T01:33:01;100129.03;;;17.44;96.92
22440;BME280;11387;51.612;7.210;2023-07-16T01:35:33;100132.53;;;17.41;97.71
22440;BME280;11387;51.612;7.210;2023-07-16T01:38:03;100131.38;;;17.42;98.17
22440;BME280;11387;51.612;7.210;2023-07-16T01:40:32;100127.63;;;17.34;98.88
22440;BME280;11387;51.612;7.210;2023-07-16T01:43:01;100137.78;;;17.30;99.44
22440;BME280;11387;51.612;7.210;2023-07-16T01:45:31;100126.81;;;17.34;99.82
22440;BME280;11387;51.612;7.210;2023-07-16T01:48:07;100119.59;;;17.29;99.97
22440;BME280;11387;51.612;7.210;2023-07-16T01:50:41;100135.09;;;17.18;100.00
22440;BME280;11387;51.612;7.210;2023-07-16T01:53:11;100141.41;;;17.18;100.00
22440;BME280;11387;51.612;7.210;2023-07-16T01:55:40;100136.25;;;17.17;100.00
22440;BME280;11387;51.612;7.210;2023-07-16T01:58:09;100146.59;;;17.04;100.00
22440;BME280;11387;51.612;7.210;2023-07-16T02:00:39;100149.91;;;17.10;100.00
22440;BME280;11387;51.612;7.210;2023-07-16T02:03:09;100155.50;;;17.13;100.00
22440;BME280;11387;51.612;7.210;2023-07-16T02:05:38;100157.47;;;17.13;100.00
22440;BME280;11387;51.612;7.210;2023-07-16T02:08:10;100164.88;;;17.09;100.00
22440;BME280;11387;51.612;7.210;2023-07-16T02:10:39;100166.97;;;17.00;100.00
22440;BME280;11387;51.612;7.210;2023-07-16T02:13:08;100163.88;;;17.01;100.00
22440;BME280;11387;51.612;7.210;2023-07-16T02:15:36;100168.25;;;17.02;100.00
22440;BME280;11387;51.612;7.210;2023-07-16T02:18:06;100171.81;;;17.03;100.00
22440;BME280;11387;51.612;7.210;2023-07-16T02:20:35;100170.41;;;17.09;99.58
22440;BME280;11387;51.612;7.210;2023-07-16T02:23:03;100170.31;;;17.05;99.97
22440;BME280;11387;51.612;7.210;2023-07-16T02:25:32;100175.84;;;17.05;99.54
22440;BME280;11387;51.612;7.210;2023-07-16T02:28:01;100177.19;;;17.11;98.84
22440;BME280;11387;51.612;7.210;2023-07-16T02:30:29;100176.91;;;17.16;98.40
22440;BME280;11387;51.612;7.210;2023-07-16T02:32:58;100183.13;;;17.13;98.62
22440;BME280;11387;51.612;7.210;2023-07-16T02:35:28;100175.84;;;17.21;98.08
22440;BME280;11387;51.612;7.210;2023-07-16T02:37:57;100171.38;;;17.16;98.34
22440;BME280;11387;51.612;7.210;2023-07-16T02:40:25;100180.03;;;17.15;98.21
22440;BME280;11387;51.612;7.210;2023-07-16T02:42:54;100179.22;;;17.14;98.32
22440;BME280;11387;51.612;7.210;2023-07-16T02:45:22;100183.25;;;17.17;98.07
22440;BME280;11387;51.612;7.210;2023-07-16T02:47:51;100189.31;;;17.07;98.31
22440;BME280;11387;51.612;7.210;2023-07-16T02:50:20;100200.25;;;17.03;98.93
22440;BME280;11387;51.612;7.210;2023-07-16T02:52:50;100191.88;;;17.15;97.86
22440;BME280;11387;51.612;7.210;2023-07-16T02:55:35;100196.31;;;17.32;96.63
22440;BME280;11387;51.612;7.210;2023-07-16T02:58:03;100194.59;;;17.28;96.46
22440;BME280;11387;51.612;7.210;2023-07-16T03:00:32;100200.59;;;17.30;96.23
22440;BME280;11387;51.612;7.210;2023-07-16T03:03:01;100200.13;;;17.28;96.34
22440;BME280;11387;51.612;7.210;2023-07-16T03:05:30;100194.53;;;17.40;95.17
22440;BME280;11387;51.612;7.210;2023-07-16T03:08:00;100193.19;;;17.34;95.25
22440;BME280;11387;51.612;7.210;2023-07-16T03:10:28;100193.19;;;17.34;95.43
22440;BME280;11387;51.612;7.210;2023-07-16T03:12:57;100199.44;;;17.31;95.58
22440;BME280;11387;51.612;7.210;2023-07-16T03:15:25;100201.03;;;17.32;95.34
22440;BME280;11387;51.612;7.210;2023-07-16T03:17:54;100200.59;;;17.45;94.75
22440;BME280;11387;51.612;7.210;2023-07-16T03:20:41;100205.41;;;17.48;94.29
22440;BME280;11387;51.612;7.210;2023-07-16T03:23:11;100200.53;;;17.58;93.75
22440;BME280;11387;51.612;7.210;2023-07-16T03:25:39;100199.72;;;17.57;93.69
22440;BME280;11387;51.612;7.210;2023-07-16T03:28:08;100204.91;;;17.59;93.35
22440;BME280;11387;51.612;7.210;2023-07-16T03:30:37;100209.72;;;17.62;93.02
22440;BME280;11387;51.612;7.210;2023-07-16T03:33:06;100204.72;;;17.51;93.34
22440;BME280;11387;51.612;7.210;2023-07-16T03:35:35;100206.31;;;17.52;92.61
22440;BME280;11387;51.612;7.210;2023-07-16T03:38:03;100207.63;;;17.43;92.78
22440;BME280;11387;51.612;7.210;2023-07-16T03:40:33;100212.00;;;17.44;92.72
22440;BME280;11387;51.612;7.210;2023-07-16T03:43:02;100218.53;;;17.36;93.21
22440;BME280;11387;51.612;7.210;2023-07-16T03:45:31;100223.84;;;17.29;93.09
22440;BME280;11387;51.612;7.210;2023-07-16T03:47:59;100222.25;;;17.28;92.50
22440;BME280;11387;51.612;7.210;2023-07-16T03:50:28;100236.06;;;17.28;91.83
22440;BME280;11387;51.612;7.210;2023-07-16T03:52:56;100233.19;;;17.24;91.46
22440;BME280;11387;51.612;7.210;2023-07-16T03:55:25;100237.38;;;17.18;91.60
22440;BME280;11387;51.612;7.210;2023-07-16T03:57:55;100235.41;;;17.18;91.22
22440;BME280;11387;51.612;7.210;2023-07-16T04:00:24;100244.16;;;17.21;89.91
22440;BME280;11387;51.612;7.210;2023-07-16T04:02:52;100243.91;;;17.26;88.66
22440;BME280;11387;51.612;7.210;2023-07-16T04:05:21;100255.22;;;17.21;87.48
22440;BME280;11387;51.612;7.210;2023-07-16T04:07:51;100257.53;;;17.18;87.59
22440;BME280;11387;51.612;7.210;2023-07-16T04:10:19;100259.84;;;17.16;85.76
22440;BME280;11387;51.612;7.210;2023-07-16T04:12:48;100263.06;;;17.18;84.77
22440;BME280;11387;51.612;7.210;2023-07-16T04:15:18;100252.00;;;17.18;84.03
22440;BME280;11387;51.612;7.210;2023-07-16T04:17:46;100258.69;;;17.17;82.01
22440;BME280;11387;51.612;7.210;2023-07-16T04:20:15;100254.63;;;17.27;79.99
22440;BME280;11387;51.612;7.210;2023-07-16T04:22:45;100269.94;;;17.25;79.16
22440;BME280;11387;51.612;7.210;2023-07-16T04:25:13;100265.13;;;17.22;78.74
22440;BME280;11387;51.612;7.210;2023-07-16T04:27:42;100279.16;;;17.29;76.55
22440;BME280;11387;51.612;7.210;2023-07-16T04:30:32;100275.34;;;17.33;76.20
22440;BME280;11387;51.612;7.210;2023-07-16T04:33:01;100276.38;;;17.29;75.63
22440;BME280;11387;51.612;7.210;2023-07-16T04:35:30;100275.94;;;17.27;75.59
22440;BME280;11387;51.612;7.210;2023-07-16T04:37:59;100288.81;;;17.35;75.66
22440;BME280;11387;51.612;7.210;2023-07-16T04:40:28;100296.88;;;17.40;75.22
22440;BME280;11387;51.612;7.210;2023-07-16T04:42:57;100286.50;;;17.37;75.07
22440;BME280;11387;51.612;7.210;2023-07-16T04:45:25;100304.81;;;17.41;75.24
22440;BME280;11387;51.612;7.210;2023-07-16T04:47:55;100302.41;;;17.40;74.92
22440;BME280;11387;51.612;7.210;2023-07-16T04:50:24;100296.13;;;17.43;74.25
22440;BME280;11387;51.612;7.210;2023-07-16T04:52:52;100302.13;;;17.45;73.28
22440;BME280;11387;51.612;7.210;2023-07-16T04:55:21;100304.19;;;17.48;72.67
22440;BME280;11387;51.612;7.210;2023-07-16T04:57:49;100310.63;;;17.52;71.29
22440;BME280;11387;51.612;7.210;2023-07-16T05:00:20;100300.47;;;17.56;71.21
22440;BME280;11387;51.612;7.210;2023-07-16T05:02:49;100300.47;;;17.56;71.33
22440;BME280;11387;51.612;7.210;2023-07-16T05:05:19;100318.22;;;17.55;71.09
22440;BME280;11387;51.612;7.210;2023-07-16T05:07:48;100313.25;;;17.61;71.10
22440;BME280;11387;51.612;7.210;2023-07-16T05:10:16;100309.31;;;17.62;71.30
22440;BME280;11387;51.612;7.210;2023-07-16T05:12:45;100311.72;;;17.63;71.21
22440;BME280;11387;51.612;7.210;2023-07-16T05:15:14;100317.94;;;17.72;70.79
22440;BME280;11387;51.612;7.210;2023-07-16T05:17:43;100311.84;;;17.67;71.29
22440;BME280;11387;51.612;7.210;2023-07-16T05:20:11;100319.47;;;17.70;70.57
22440;BME280;11387;51.612;7.210;2023-07-16T05:22:41;100322.22;;;17.70;70.75
22440;BME280;11387;51.612;7.210;2023-07-16T05:25:10;100334.91;;;17.71;70.68
22440;BME280;11387;51.612;7.210;2023-07-16T05:27:38;100330.06;;;17.68;68.15
22440;BME280;11387;51.612;7.210;2023-07-16T05:30:08;100340.50;;;17.74;68.19
22440;BME280;11387;51.612;7.210;2023-07-16T05:32:36;100331.94;;;17.79;67.96
22440;BME280;11387;51.612;7.210;2023-07-16T05:35:05;100337.22;;;17.84;67.61
22440;BME280;11387;51.612;7.210;2023-07-16T05:37:34;100337.69;;;17.87;66.75
22440;BME280;11387;51.612;7.210;2023-07-16T05:40:06;100340.19;;;17.92;66.76
22440;BME280;11387;51.612;7.210;2023-07-16T05:42:36;100348.94;;;17.94;67.20
22440;BME280;11387;51.612;7.210;2023-07-16T05:45:05;100347.63;;;18.03;67.02
22440;BME280;11387;51.612;7.210;2023-07-16T05:47:34;100347.00;;;18.10;66.99
22440;BME280;11387;51.612;7.210;2023-07-16T05:50:03;100351.38;;;18.11;67.71
22440;BME280;11387;51.612;7.210;2023-07-16T05:52:31;100346.75;;;18.15;67.87
22440;BME280;11387;51.612;7.210;2023-07-16T05:55:00;100362.63;;;18.18;67.81
22440;BME280;11387;51.612;7.210;2023-07-16T05:57:30;100344.88;;;18.19;67.44
22440;BME280;11387;51.612;7.210;2023-07-16T05:59:58;100362.28;;;18.20;67.33
22440;BME280;11387;51.612;7.210;2023-07-16T06:02:27;100357.19;;;18.37;67.51
22440;BME280;11387;51.612;7.210;2023-07-16T06:04:56;100357.63;;;18.39;66.95
22440;BME280;11387;51.612;7.210;2023-07-16T06:07:24;100360.16;;;18.29;67.53
22440;BME280;11387;51.612;7.210;2023-07-16T06:09:53;100357.47;;;18.48;66.39
22440;BME280;11387;51.612;7.210;2023-07-16T06:12:22;100359.03;;;18.61;65.80
22440;BME280;11387;51.612;7.210;2023-07-16T06:14:52;100355.75;;;18.75;65.27
22440;BME280;11387;51.612;7.210;2023-07-16T06:17:21;100355.06;;;18.78;63.66
22440;BME280;11387;51.612;7.210;2023-07-16T06:19:50;100359.63;;;18.70;63.58
22440;BME280;11387;51.612;7.210;2023-07-16T06:22:19;100374.81;;;18.76;63.08
22440;BME280;11387;51.612;7.210;2023-07-16T06:24:47;100370.59;;;18.67;63.02
22440;BME280;11387;51.612;7.210;2023-07-16T06:27:16;100375.63;;;18.77;62.74
22440;BME280;11387;51.612;7.210;2023-07-16T06:29:44;100383.03;;;18.73;62.23
22440;BME280;11387;51.612;7.210;2023-07-16T06:32:14;100390.19;;;18.74;62.04
22440;BME280;11387;51.612;7.210;2023-07-16T06:34:43;100382.06;;;18.81;61.98
22440;BME280;11387;51.612;7.210;2023-07-16T06:37:12;100359.41;;;18.95;61.27
22440;BME280;11387;51.612;7.210;2023-07-16T06:39:40;100379.84;;;19.06;60.99
22440;BME280;11387;51.612;7.210;2023-07-16T06:42:09;100389.41;;;19.08;60.92
22440;BME280;11387;51.612;7.210;2023-07-16T06:44:38;100387.44;;;19.09;60.95
22440;BME280;11387;51.612;7.210;2023-07-16T06:47:06;100393.44;;;19.11;60.71
22440;BME280;11387;51.612;7.210;2023-07-16T06:49:37;100397.97;;;19.19;60.26
22440;BME280;11387;51.612;7.210;2023-07-16T06:52:20;100399.25;;;19.41;59.97
22440;BME280;11387;51.612;7.210;2023-07-16T06:54:49;100403.97;;;19.21;59.94
22440;BME280;11387;51.612;7.210;2023-07-16T06:57:18;100391.94;;;19.33;60.16
22440;BME280;11387;51.612;7.210;2023-07-16T07:00:07;100403.97;;;19.56;59.27
22440;BME280;11387;51.612;7.210;2023-07-16T07:02:38;100404.63;;;19.14;59.58
22440;BME280;11387;51.612;7.210;2023-07-16T07:05:09;100396.84;;;19.39;59.36
22440;BME280;11387;51.612;7.210;2023-07-16T07:07:37;100406.56;;;19.49;58.91
22440;BME280;11387;51.612;7.210;2023-07-16T07:10:07;100414.81;;;19.10;59.66
22440;BME280;11387;51.612;7.210;2023-07-16T07:12:36;100410.44;;;19.09;59.44
22440;BME280;11387;51.612;7.210;2023-07-16T07:15:06;100394.50;;;19.06;59.86
22440;BME280;11387;51.612;7.210;2023-07-16T07:17:35;100408.56;;;19.33;59.57
22440;BME280;11387;51.612;7.210;2023-07-16T07:20:05;100403.59;;;19.58;58.56
22440;BME280;11387;51.612;7.210;2023-07-16T07:22:37;100407.25;;;19.62;58.88
22440;BME280;11387;51.612;7.210;2023-07-16T07:25:06;100414.03;;;19.64;57.76
22440;BME280;11387;51.612;7.210;2023-07-16T07:27:36;100401.13;;;19.53;58.29
22440;BME280;11387;51.612;7.210;2023-07-16T07:30:06;100407.84;;;19.36;58.17
22440;BME280;11387;51.612;7.210;2023-07-16T07:32:37;100405.72;;;19.64;57.99
22440;BME280;11387;51.612;7.210;2023-07-16T07:35:06;100413.75;;;19.89;57.35
22440;BME280;11387;51.612;7.210;2023-07-16T07:37:34;100410.25;;;19.72;56.74
22440;BME280;11387;51.612;7.210;2023-07-16T07:40:06;100416.59;;;19.73;56.23
22440;BME280;11387;51.612;7.210;2023-07-16T07:42:36;100395.34;;;19.80;56.19
22440;BME280;11387;51.612;7.210;2023-07-16T07:45:05;100409.13;;;19.96;56.10
22440;BME280;11387;51.612;7.210;2023-07-16T07:47:34;100418.72;;;19.99;56.32
22440;BME280;11387;51.612;7.210;2023-07-16T07:50:03;100419.75;;;20.33;55.77
22440;BME280;11387;51.612;7.210;2023-07-16T07:52:32;100419.31;;;20.99;54.32
22440;BME280;11387;51.612;7.210;2023-07-16T07:55:01;100423.72;;;21.27;53.36
22440;BME280;11387;51.612;7.210;2023-07-16T07:57:31;100417.91;;;21.35;52.33
22440;BME280;11387;51.612;7.210;2023-07-16T08:00:00;100416.41;;;21.45;52.80
22440;BME280;11387;51.612;7.210;2023-07-16T08:02:29;100423.53;;;21.42;51.88
22440;BME280;11387;51.612;7.210;2023-07-16T08:04:58;100410.75;;;21.11;51.33
22440;BME280;11387;51.612;7.210;2023-07-16T08:07:31;100429.28;;;21.27;50.71
22440;BME280;11387;51.612;7.210;2023-07-16T08:10:00;100425.94;;;20.91;51.89
22440;BME280;11387;51.612;7.210;2023-07-16T08:12:28;100422.72;;;21.15;51.33
22440;BME280;11387;51.612;7.210;2023-07-16T08:14:59;100411.91;;;21.97;49.79
22440;BME280;11387;51.612;7.210;2023-07-16T08:17:28;100435.53;;;22.47;47.56
22440;BME280;11387;51.612;7.210;2023-07-16T08:19:57;100449.03;;;23.37;44.70
22440;BME280;11387;51.612;7.210;2023-07-16T08:22:26;100427.41;;;23.20;45.23
22440;BME280;11387;51.612;7.210;2023-07-16T08:24:55;100429.34;;;22.68;46.56
22440;BME280;11387;51.612;7.210;2023-07-16T08:27:23;100424.94;;;23.76;44.06
22440;BME280;11387;51.612;7.210;2023-07-16T08:29:52;100429.59;;;25.02;40.83
22440;BME280;11387;51.612;7.210;2023-07-16T08:32:22;100428.69;;;25.44;41.10
22440;BME280;11387;51.612;7.210;2023-07-16T08:34:51;100431.47;;;25.55;39.06
22440;BME280;11387;51.612;7.210;2023-07-16T08:37:19;100418.75;;;24.50;40.75
22440;BME280;11387;51.612;7.210;2023-07-16T08:39:51;100444.75;;;25.36;39.41
22440;BME280;11387;51.612;7.210;2023-07-16T08:42:20;100449.09;;;25.48;39.54
22440;BME280;11387;51.612;7.210;2023-07-16T08:44:49;100443.34;;;26.64;37.82
22440;BME280;11387;51.612;7.210;2023-07-16T08:47:18;100444.75;;;24.69;39.83
22440;BME280;11387;51.612;7.210;2023-07-16T08:49:53;100442.81;;;26.21;38.25
22440;BME280;11387;51.612;7.210;2023-07-16T08:52:22;100457.56;;;26.35;37.63
22440;BME280;11387;51.612;7.210;2023-07-16T08:54:51;100457.50;;;25.41;38.38
22440;BME280;11387;51.612;7.210;2023-07-16T08:57:20;100443.69;;;26.03;37.18
22440;BME280;11387;51.612;7.210;2023-07-16T08:59:50;100446.78;;;28.36;33.35
22440;BME280;11387;51.612;7.210;2023-07-16T09:02:19;100446.81;;;27.30;35.59
22440;BME280;11387;51.612;7.210;2023-07-16T09:04:50;100447.94;;;28.38;33.46
22440;BME280;11387;51.612;7.210;2023-07-16T09:07:20;100454.06;;;27.69;33.95
22440;BME280;11387;51.612;7.210;2023-07-16T09:09:56;100471.56;;;25.12;38.48
22440;BME280;11387;51.612;7.210;2023-07-16T09:12:28;100457.06;;;26.55;35.99
22440;BME280;11387;51.612;7.210;2023-07-16T09:14:57;100443.16;;;27.74;34.10
22440;BME280;11387;51.612;7.210;2023-07-16T09:17:26;100462.78;;;28.42;33.42
22440;BME280;11387;51.612;7.210;2023-07-16T09:19:56;100464.22;;;29.04;32.10
22440;BME280;11387;51.612;7.210;2023-07-16T09:22:24;100459.66;;;29.10;32.09
22440;BME280;11387;51.612;7.210;2023-07-16T09:24:53;100472.28;;;29.49;31.76
22440;BME280;11387;51.612;7.210;2023-07-16T09:27:27;100481.28;;;27.75;33.47
22440;BME280;11387;51.612;7.210;2023-07-16T09:29:56;100444.56;;;27.90;33.69
22440;BME280;11387;51.612;7.210;2023-07-16T09:32:33;100461.72;;;27.99;33.31
22440;BME280;11387;51.612;7.210;2023-07-16T09:35:09;100452.41;;;27.71;33.96
22440;BME280;11387;51.612;7.210;2023-07-16T09:37:38;100475.44;;;25.86;36.15
22440;BME280;11387;51.612;7.210;2023-07-16T09:40:08;100468.13;;;26.06;36.15
22440;BME280;11387;51.612;7.210;2023-07-16T09:42:38;100477.91;;;25.52;36.93
22440;BME280;11387;51.612;7.210;2023-07-16T09:45:08;100474.69;;;25.61;37.21
22440;BME280;11387;51.612;7.210;2023-07-16T09:48:02;100480.34;;;24.72;38.36
22440;BME280;11387;51.612;7.210;2023-07-16T09:50:34;100482.31;;;25.46;37.98
22440;BME280;11387;51.612;7.210;2023-07-16T09:53:04;100471.06;;;28.23;33.90
22440;BME280;11387;51.612;7.210;2023-07-16T09:55:35;100479.63;;;27.81;33.44
22440;BME280;11387;51.612;7.210;2023-07-16T09:58:07;100481.25;;;28.97;32.19
22440;BME280;11387;51.612;7.210;2023-07-16T10:00:37;100476.94;;;28.35;32.62
22440;BME280;11387;51.612;7.210;2023-07-16T10:03:07;100477.56;;;28.73;31.99
22440;BME280;11387;51.612;7.210;2023-07-16T10:05:38;100470.28;;;27.88;33.39
22440;BME280;11387;51.612;7.210;2023-07-16T10:08:16;100489.94;;;27.09;34.53
22440;BME280;11387;51.612;7.210;2023-07-16T10:10:46;100486.16;;;27.27;34.81
22440;BME280;11387;51.612;7.210;2023-07-16T10:13:16;100496.94;;;26.14;35.91
22440;BME280;11387;51.612;7.210;2023-07-16T10:15:52;100494.25;;;26.66;34.79
22440;BME280;11387;51.612;7.210;2023-07-16T10:18:23;100502.34;;;25.20;37.81
22440;BME280;11387;51.612;7.210;2023-07-16T10:21:00;100499.53;;;24.91;38.58
22440;BME280;11387;51.612;7.210;2023-07-16T10:23:40;100497.44;;;24.35;40.32
22440;BME280;11387;51.612;7.210;2023-07-16T10:26:13;100501.78;;;26.03;37.77
22440;BME280;11387;51.612;7.210;2023-07-16T10:28:47;100521.16;;;25.01;37.96
22440;BME280;11387;51.612;7.210;2023-07-16T10:31:22;100502.66;;;24.43;39.37
22440;BME280;11387;51.612;7.210;2023-07-16T10:33:58;100508.59;;;23.55;41.54
22440;BME280;11387;51.612;7.210;2023-07-16T10:36:29;100500.44;;;23.94;42.06
22440;BME280;11387;51.612;7.210;2023-07-16T10:39:04;100521.44;;;23.63;41.91
22440;BME280;11387;51.612;7.210;2023-07-16T10:41:33;100517.50;;;23.71;41.48
22440;BME280;11387;51.612;7.210;2023-07-16T10:44:02;100530.63;;;23.67;40.84
22440;BME280;11387;51.612;7.210;2023-07-16T10:46:31;100524.84;;;24.01;40.70
22440;BME280;11387;51.612;7.210;2023-07-16T10:49:01;100516.31;;;23.72;41.18
22440;BME280;11387;51.612;7.210;2023-07-16T10:51:31;100515.88;;;23.70;41.69
22440;BME280;11387;51.612;7.210;2023-07-16T10:54:00;100525.66;;;22.95;42.70
22440;BME280;11387;51.612;7.210;2023-07-16T10:56:35;100524.72;;;23.76;41.24
22440;BME280;11387;51.612;7.210;2023-07-16T10:59:03;100529.81;;;24.39;40.73
22440;BME280;11387;51.612;7.210;2023-07-16T11:01:33;100526.34;;;23.84;41.54
22440;BME280;11387;51.612;7.210;2023-07-16T11:04:06;100527.75;;;23.57;41.62
22440;BME280;11387;51.612;7.210;2023-07-16T11:06:36;100533.81;;;23.14;42.44
22440;BME280;11387;51.612;7.210;2023-07-16T11:09:06;100523.31;;;22.64;43.92
22440;BME280;11387;51.612;7.210;2023-07-16T11:11:35;100535.34;;;23.08;42.92
22440;BME280;11387;51.612;7.210;2023-07-16T11:14:04;100520.34;;;23.78;41.55
22440;BME280;11387;51.612;7.210;2023-07-16T11:16:34;100528.25;;;23.69;41.69
22440;BME280;11387;51.612;7.210;2023-07-16T11:19:04;100526.59;;;23.61;41.90
22440;BME280;11387;51.612;7.210;2023-07-16T11:21:34;100528.25;;;24.52;40.47
22440;BME280;11387;51.612;7.210;2023-07-16T11:24:12;100523.44;;;24.42;40.18
22440;BME280;11387;51.612;7.210;2023-07-16T11:26:50;100536.09;;;24.22;40.94
22440;BME280;11387;51.612;7.210;2023-07-16T11:29:19;100526.38;;;25.06;39.23
22440;BME280;11387;51.612;7.210;2023-07-16T11:31:49;100530.28;;;24.80;39.65
22440;BME280;11387;51.612;7.210;2023-07-16T11:34:19;100543.47;;;24.80;40.02
22440;BME280;11387;51.612;7.210;2023-07-16T11:36:48;100534.59;;;24.35;40.87
22440;BME280;11387;51.612;7.210;2023-07-16T11:39:19;100539.34;;;24.28;41.32
22440;BME280;11387;51.612;7.210;2023-07-16T11:41:54;100553.72;;;24.26;41.82
22440;BME280;11387;51.612;7.210;2023-07-16T11:44:32;100533.78;;;24.35;41.61
22440;BME280;11387;51.612;7.210;2023-07-16T11:47:01;100544.84;;;24.17;41.49
22440;BME280;11387;51.612;7.210;2023-07-16T11:49:29;100537.81;;;24.51;41.17
22440;BME280;11387;51.612;7.210;2023-07-16T11:51:58;100536.69;;;24.74;41.00
22440;BME280;11387;51.612;7.210;2023-07-16T11:54:28;100542.63;;;24.51;41.27
22440;BME280;11387;51.612;7.210;2023-07-16T11:56:57;100541.63;;;24.08;41.56
22440;BME280;11387;51.612;7.210;2023-07-16T11:59:25;100535.09;;;23.75;42.43
22440;BME280;11387;51.612;7.210;2023-07-16T12:01:54;100548.91;;;23.54;43.08
22440;BME280;11387;51.612;7.210;2023-07-16T12:04:23;100560.75;;;23.40;43.80
22440;BME280;11387;51.612;7.210;2023-07-16T12:06:51;100545.97;;;23.40;43.59
22440;BME280;11387;51.612;7.210;2023-07-16T12:09:20;100545.97;;;23.40;43.92
22440;BME280;11387;51.612;7.210;2023-07-16T12:11:50;100560.16;;;24.34;42.77
22440;BME280;11387;51.612;7.210;2023-07-16T12:14:18;100554.75;;;25.01;40.15
22440;BME280;11387;51.612;7.210;2023-07-16T12:16:47;100546.66;;;24.68;40.10
22440;BME280;11387;51.612;7.210;2023-07-16T12:19:15;100555.94;;;23.96;41.48
22440;BME280;11387;51.612;7.210;2023-07-16T12:21:44;100559.59;;;24.07;41.38
22440;BME280;11387;51.612;7.210;2023-07-16T12:24:13;100552.06;;;24.14;41.72
22440;BME280;11387;51.612;7.210;2023-07-16T12:26:42;100551.38;;;24.35;41.40
22440;BME280;11387;51.612;7.210;2023-07-16T12:29:11;100558.25;;;24.77;40.58
22440;BME280;11387;51.612;7.210;2023-07-16T12:31:40;100562.50;;;24.25;40.56
22440;BME280;11387;51.612;7.210;2023-07-16T12:34:08;100552.63;;;23.72;41.92
22440;BME280;11387;51.612;7.210;2023-07-16T12:36:37;100555.34;;;23.65;42.89
22440;BME280;11387;51.612;7.210;2023-07-16T12:39:05;100563.88;;;23.35;43.41
22440;BME280;11387;51.612;7.210;2023-07-16T12:41:34;100558.84;;;23.51;42.98
22440;BME280;11387;51.612;7.210;2023-07-16T12:44:03;100569.94;;;23.44;43.45
22440;BME280;11387;51.612;7.210;2023-07-16T12:46:35;100570.09;;;23.14;43.52
22440;BME280;11387;51.612;7.210;2023-07-16T12:49:04;100570.41;;;23.50;43.29
22440;BME280;11387;51.612;7.210;2023-07-16T12:51:32;100574.91;;;23.65;43.45
22440;BME280;11387;51.612;7.210;2023-07-16T12:54:04;100571.94;;;23.99;42.67
22440;BME280;11387;51.612;7.210;2023-07-16T12:56:33;100573.06;;;24.70;41.28
22440;BME280;11387;51.612;7.210;2023-07-16T12:59:01;100576.38;;;25.33;39.95
22440;BME280;11387;51.612;7.210;2023-07-16T13:01:30;100579.53;;;25.92;39.24
22440;BME280;11387;51.612;7.210;2023-07-16T13:04:01;100579.53;;;25.92;38.27
22440;BME280;11387;51.612;7.210;2023-07-16T13:06:29;100573.78;;;26.41;37.73